createdAt,value
2019-06-10T00:00:51.134Z,27.70
2019-06-10T00:03:20.627Z,27.60
2019-06-10T00:05:51.763Z,27.30
2019-06-10T00:08:20.909Z,27.10
2019-06-10T00:10:51.154Z,27.20
2019-06-10T00:13:21.885Z,27.10
2019-06-10T00:15:51.551Z,27.30
2019-06-10T00:18:35.390Z,27.40
2019-06-10T00:20:51.442Z,27.50
2019-06-10T00:23:21.878Z,27.50
2019-06-10T00:25:51.623Z,27.60
2019-06-10T00:28:21.761Z,27.60
2019-06-10T00:30:51.668Z,27.60
2019-06-10T00:33:21.604Z,27.60
2019-06-10T00:35:51.521Z,27.60
2019-06-10T00:38:21.434Z,27.60
2019-06-10T00:40:51.290Z,27.70
2019-06-10T00:43:21.507Z,27.70
2019-06-10T00:45:51.340Z,27.70
2019-06-10T00:48:26.166Z,27.70
2019-06-10T00:50:51.812Z,27.40
2019-06-10T00:53:21.271Z,27.40
2019-06-10T00:55:51.540Z,27.40
2019-06-10T00:58:21.799Z,27.40
2019-06-10T01:00:51.667Z,27.60
2019-06-10T01:03:21.240Z,27.70
2019-06-10T01:05:50.871Z,27.70
2019-06-10T01:08:21.461Z,27.80
2019-06-10T01:10:52.233Z,27.70
2019-06-10T01:13:21.390Z,27.80
2019-06-10T01:15:51.149Z,27.80
2019-06-10T01:18:34.863Z,27.80
2019-06-10T01:20:51.729Z,27.80
2019-06-10T01:23:21.784Z,27.80
2019-06-10T01:25:51.303Z,27.80
2019-06-10T01:28:22.037Z,27.80
2019-06-10T01:30:51.714Z,27.80
2019-06-10T01:33:21.326Z,27.80
2019-06-10T01:35:51.494Z,27.80
2019-06-10T01:38:21.163Z,27.80
2019-06-10T01:40:50.925Z,27.60
2019-06-10T01:43:21.453Z,27.70
2019-06-10T01:45:51.125Z,27.50
2019-06-10T01:48:21.074Z,27.30
2019-06-10T01:50:51.316Z,27.20
2019-06-10T01:53:22.056Z,27.30
2019-06-10T01:55:51.937Z,27.50
2019-06-10T01:58:23.593Z,27.60
2019-06-10T02:01:13.542Z,27.70
2019-06-10T02:03:41.482Z,27.70
2019-06-10T02:06:14.637Z,27.80
2019-06-10T02:08:41.810Z,27.70
2019-06-10T02:11:14.106Z,27.70
2019-06-10T02:13:41.598Z,27.80
2019-06-10T02:16:14.091Z,27.80
2019-06-10T02:18:54.421Z,27.80
2019-06-10T02:21:15.007Z,27.80
2019-06-10T02:23:43.094Z,27.80
2019-06-10T02:26:14.906Z,27.80
2019-06-10T02:28:43.027Z,27.80
2019-06-10T02:31:15.149Z,27.80
2019-06-10T02:33:43.039Z,27.80
2019-06-10T02:36:16.015Z,27.80
2019-06-10T02:38:44.389Z,27.80
2019-06-10T02:41:17.795Z,27.80
2019-06-10T02:43:44.414Z,27.80
2019-06-10T02:46:16.050Z,27.90
2019-06-10T02:48:44.080Z,27.90
2019-06-10T02:51:15.090Z,27.90
2019-06-10T02:53:43.810Z,27.90
2019-06-10T02:56:14.676Z,27.90
2019-06-10T02:58:45.043Z,27.90
2019-06-10T03:01:16.928Z,27.80
2019-06-10T03:03:49.551Z,27.80
2019-06-10T03:06:17.971Z,27.80
2019-06-10T03:08:47.813Z,27.80
2019-06-10T03:11:19.249Z,27.80
2019-06-10T03:13:47.720Z,27.90
2019-06-10T03:16:25.807Z,27.90
2019-06-10T03:18:55.256Z,27.80
2019-06-10T03:21:25.890Z,27.80
2019-06-10T03:23:55.047Z,27.70
2019-06-10T03:26:25.604Z,27.70
2019-06-10T03:28:54.730Z,27.80
2019-06-10T03:31:30.939Z,27.70
2019-06-10T03:33:54.771Z,27.30
2019-06-10T03:36:25.761Z,27.30
2019-06-10T03:38:54.482Z,27.50
2019-06-10T03:41:25.329Z,27.60
2019-06-10T03:43:54.396Z,27.60
2019-06-10T03:46:24.250Z,27.40
2019-06-10T03:48:54.006Z,27.50
2019-06-10T03:51:24.335Z,27.50
2019-06-10T03:53:53.946Z,27.50
2019-06-10T03:56:25.023Z,27.50
2019-06-10T03:58:53.552Z,27.60
2019-06-10T04:01:26.443Z,27.60
2019-06-10T04:03:53.463Z,27.70
2019-06-10T04:06:25.555Z,27.50
2019-06-10T04:08:53.356Z,27.50
2019-06-10T04:11:24.078Z,27.60
2019-06-10T04:13:53.586Z,27.60
2019-06-10T04:16:25.389Z,27.70
2019-06-10T04:18:54.038Z,27.70
2019-06-10T04:21:25.449Z,27.80
2019-06-10T04:23:53.964Z,27.80
2019-06-10T04:26:25.249Z,27.80
2019-06-10T04:28:53.550Z,27.80
2019-06-10T04:31:24.744Z,27.60
2019-06-10T04:33:53.493Z,27.40
2019-06-10T04:36:24.680Z,27.50
2019-06-10T04:38:53.085Z,27.50
2019-06-10T04:41:24.335Z,27.60
2019-06-10T04:43:53.182Z,27.70
2019-06-10T04:46:24.606Z,27.70
2019-06-10T04:48:53.374Z,27.80
2019-06-10T04:51:23.895Z,27.80
2019-06-10T04:53:53.460Z,27.90
2019-06-10T04:56:24.601Z,27.90
2019-06-10T04:58:54.045Z,27.70
2019-06-10T05:01:25.554Z,27.70
2019-06-10T05:03:54.347Z,27.80
2019-06-10T05:06:25.171Z,27.60
2019-06-10T05:08:53.946Z,27.60
2019-06-10T05:11:24.256Z,27.80
2019-06-10T05:13:53.879Z,27.80
2019-06-10T05:16:27.049Z,27.80
2019-06-10T05:18:54.965Z,27.90
2019-06-10T05:21:26.682Z,27.90
2019-06-10T05:23:55.066Z,27.90
2019-06-10T05:26:25.672Z,27.90
2019-06-10T05:28:54.661Z,27.90
2019-06-10T05:31:27.349Z,27.50
2019-06-10T05:33:54.963Z,27.30
2019-06-10T05:36:26.871Z,27.10
2019-06-10T05:38:54.897Z,27.10
2019-06-10T05:41:27.145Z,27.10
2019-06-10T05:43:54.843Z,26.70
2019-06-10T05:46:25.498Z,26.60
2019-06-10T05:48:54.837Z,26.90
2019-06-10T05:51:25.834Z,26.90
2019-06-10T05:53:54.771Z,27.10
2019-06-10T05:56:24.130Z,27.30
2019-06-10T05:58:54.341Z,27.40
2019-06-10T06:01:24.227Z,27.40
2019-06-10T06:03:53.946Z,27.40
2019-06-10T06:06:23.246Z,27.40
2019-06-10T06:08:53.397Z,27.40
2019-06-10T06:11:23.180Z,27.50
2019-06-10T06:13:52.465Z,27.50
2019-06-10T06:16:23.067Z,27.50
2019-06-10T06:18:52.835Z,27.60
2019-06-10T06:21:29.113Z,27.60
2019-06-10T06:23:52.981Z,27.60
2019-06-10T06:26:23.615Z,27.50
2019-06-10T06:28:53.541Z,27.40
2019-06-10T06:31:23.210Z,27.30
2019-06-10T06:33:52.844Z,27.30
2019-06-10T06:36:22.759Z,27.30
2019-06-10T06:38:53.102Z,27.40
2019-06-10T06:41:22.710Z,27.50
2019-06-10T06:43:53.109Z,27.60
2019-06-10T06:46:23.422Z,27.60
2019-06-10T06:48:53.400Z,27.60
2019-06-10T06:51:36.345Z,27.60
2019-06-10T06:53:56.224Z,27.60
2019-06-10T06:56:25.027Z,27.50
2019-06-10T06:58:54.429Z,27.50
2019-06-10T07:01:25.853Z,27.40
2019-06-10T07:03:54.027Z,27.30
2019-06-10T07:06:23.354Z,27.20
2019-06-10T07:09:04.126Z,27.20
2019-06-10T07:11:23.085Z,27.10
2019-06-10T07:13:53.534Z,27.10
2019-06-10T07:16:23.109Z,27.10
2019-06-10T07:18:53.975Z,27.10
2019-06-10T07:21:23.145Z,27.10
2019-06-10T07:23:52.898Z,27.10
2019-06-10T07:26:22.378Z,27.10
2019-06-10T07:28:53.734Z,27.00
2019-06-10T07:31:27.488Z,26.90
2019-06-10T07:33:53.657Z,26.90
2019-06-10T07:36:23.506Z,26.90
2019-06-10T07:38:54.214Z,26.90
2019-06-10T07:41:23.383Z,26.70
2019-06-10T07:43:53.178Z,26.80
2019-06-10T07:46:23.030Z,26.90
2019-06-10T07:48:56.260Z,26.90
2019-06-10T07:51:23.303Z,27.00
2019-06-10T07:53:53.235Z,26.90
2019-06-10T07:56:23.432Z,26.90
2019-06-10T07:58:53.010Z,26.90
2019-06-10T08:01:23.021Z,27.00
2019-06-10T08:03:52.859Z,27.00
2019-06-10T08:06:22.916Z,27.00
2019-06-10T08:08:53.120Z,27.00
2019-06-10T08:11:23.029Z,27.10
2019-06-10T08:13:53.875Z,27.20
2019-06-10T08:16:23.827Z,27.20
2019-06-10T08:19:20.498Z,27.20
2019-06-10T08:21:23.550Z,27.30
2019-06-10T08:23:54.311Z,27.30
2019-06-10T08:26:23.439Z,27.30
2019-06-10T08:28:53.263Z,27.40
2019-06-10T08:31:22.786Z,27.50
2019-06-10T08:33:53.522Z,27.50
2019-06-10T08:36:22.935Z,27.50
2019-06-10T08:38:52.678Z,27.60
2019-06-10T08:41:23.043Z,27.60
2019-06-10T08:43:52.980Z,27.60
2019-06-10T08:46:22.553Z,27.70
2019-06-10T08:48:52.672Z,27.80
2019-06-10T08:51:23.623Z,27.80
2019-06-10T08:53:53.195Z,27.80
2019-06-10T08:56:22.792Z,27.90
2019-06-10T08:58:54.125Z,27.90
2019-06-10T09:01:23.132Z,28.00
2019-06-10T09:03:53.678Z,27.90
2019-06-10T09:06:23.314Z,28.00
2019-06-10T09:08:54.701Z,28.20
2019-06-10T09:11:24.123Z,28.30
2019-06-10T09:13:54.170Z,28.50
2019-06-10T09:16:23.154Z,28.70
2019-06-10T09:18:55.144Z,29.10
2019-06-10T09:21:22.759Z,29.30
2019-06-10T09:23:59.402Z,29.40
2019-06-10T09:26:23.067Z,29.50
2019-06-10T09:28:56.212Z,29.50
2019-06-10T09:31:24.012Z,29.50
2019-06-10T09:33:56.684Z,29.60
2019-06-10T09:36:23.768Z,29.70
2019-06-10T09:38:54.970Z,29.80
2019-06-10T09:41:36.054Z,29.90
2019-06-10T09:43:56.870Z,29.90
2019-06-10T09:46:24.885Z,30.10
2019-06-10T09:48:55.959Z,30.20
2019-06-10T09:51:25.158Z,30.40
2019-06-10T09:54:02.124Z,30.60
2019-06-10T09:56:25.054Z,30.90
2019-06-10T09:58:55.335Z,31.00
2019-06-10T10:01:24.804Z,31.10
2019-06-10T10:03:59.806Z,31.10
2019-06-10T10:06:24.448Z,31.20
2019-06-10T10:08:58.031Z,31.30
2019-06-10T10:11:28.377Z,31.40
2019-06-10T10:13:54.932Z,31.50
2019-06-10T10:16:23.914Z,31.60
2019-06-10T10:19:00.304Z,31.60
2019-06-10T10:21:23.589Z,31.60
2019-06-10T10:24:06.292Z,31.60
2019-06-10T10:26:23.527Z,31.50
2019-06-10T10:28:57.015Z,31.50
2019-06-10T10:31:24.107Z,31.30
2019-06-10T10:33:53.149Z,31.20
2019-06-10T10:36:22.602Z,31.20
2019-06-10T10:38:53.458Z,31.20
2019-06-10T10:41:23.983Z,31.20
2019-06-10T10:43:58.145Z,31.20
2019-06-10T10:46:23.857Z,31.10
2019-06-10T10:48:55.164Z,31.00
2019-06-10T10:51:23.453Z,31.00
2019-06-10T10:54:18.773Z,31.00
2019-06-10T10:56:23.042Z,31.00
2019-06-10T10:58:55.877Z,30.90
2019-06-10T11:01:23.773Z,30.90
2019-06-10T11:03:58.899Z,30.80
2019-06-10T11:06:23.521Z,30.70
2019-06-10T11:08:55.865Z,30.60
2019-06-10T11:11:23.675Z,30.70
2019-06-10T11:13:56.584Z,30.70
2019-06-10T11:16:23.336Z,30.70
2019-06-10T11:18:56.185Z,30.70
2019-06-10T11:21:23.701Z,30.70
2019-06-10T11:23:56.916Z,30.70
2019-06-10T11:26:26.199Z,30.70
2019-06-10T11:28:55.620Z,30.70
2019-06-10T11:31:24.515Z,30.70
2019-06-10T11:33:57.031Z,30.70
2019-06-10T11:36:24.114Z,30.80
2019-06-10T11:38:55.571Z,30.70
2019-06-10T11:41:23.854Z,30.70
2019-06-10T11:43:55.029Z,30.60
2019-06-10T11:46:23.481Z,30.60
2019-06-10T11:48:55.642Z,30.50
2019-06-10T11:51:23.636Z,30.50
2019-06-10T11:53:54.572Z,30.50
2019-06-10T11:56:23.635Z,30.50
2019-06-10T11:58:56.278Z,30.50
2019-06-10T12:01:24.084Z,30.40
2019-06-10T12:03:55.353Z,30.40
2019-06-10T12:06:24.016Z,30.40
2019-06-10T12:08:57.331Z,30.40
2019-06-10T12:11:23.646Z,30.30
2019-06-10T12:13:57.734Z,30.10
2019-06-10T12:18:56.677Z,30.00
2019-06-10T12:21:24.799Z,30.00
2019-06-10T12:23:58.627Z,30.00
2019-06-10T12:26:25.281Z,30.10
2019-06-10T12:28:56.286Z,30.10
2019-06-10T12:31:24.886Z,30.10
2019-06-10T12:33:57.120Z,30.20
2019-06-10T12:36:24.482Z,30.20
2019-06-10T12:38:58.284Z,30.20
2019-06-10T12:41:24.437Z,30.20
2019-06-10T12:43:54.786Z,30.10
2019-06-10T12:46:23.929Z,30.10
2019-06-10T12:48:55.904Z,30.20
2019-06-10T12:51:23.538Z,30.10
2019-06-10T12:53:53.246Z,30.10
2019-06-10T12:56:22.811Z,30.00
2019-06-10T12:58:54.589Z,30.10
2019-06-10T13:01:23.032Z,30.00
2019-06-10T13:03:53.708Z,29.90
2019-06-10T13:06:23.524Z,29.90
2019-06-10T13:08:53.333Z,29.90
2019-06-10T13:11:23.403Z,30.00
2019-06-10T13:13:53.135Z,30.00
2019-06-10T13:16:23.226Z,30.00
2019-06-10T13:18:52.584Z,30.00
2019-06-10T13:21:22.763Z,29.90
2019-06-10T13:23:54.159Z,30.00
2019-06-10T13:26:23.360Z,30.00
2019-06-10T13:28:52.715Z,29.90
2019-06-10T13:31:23.463Z,29.60
2019-06-10T13:33:52.873Z,29.40
2019-06-10T13:36:25.952Z,29.40
2019-06-10T13:38:53.779Z,29.20
2019-06-10T13:41:22.884Z,29.20
2019-06-10T13:43:52.904Z,29.30
2019-06-10T13:46:24.637Z,29.30
2019-06-10T13:48:53.598Z,29.40
2019-06-10T13:51:22.599Z,29.40
2019-06-10T13:53:53.730Z,29.30
2019-06-10T13:56:39.876Z,29.30
2019-06-10T13:58:53.181Z,29.20
2019-06-10T14:01:22.420Z,29.20
2019-06-10T14:03:53.807Z,29.10
2019-06-10T14:06:37.668Z,29.10
2019-06-10T14:08:54.854Z,29.20
2019-06-10T14:11:26.927Z,29.30
2019-06-10T14:13:53.997Z,29.30
2019-06-10T14:16:23.623Z,29.40
2019-06-10T14:18:54.151Z,29.40
2019-06-10T14:21:23.706Z,29.50
2019-06-10T14:23:53.837Z,29.50
2019-06-10T14:26:37.166Z,29.60
2019-06-10T14:28:53.867Z,29.50
2019-06-10T14:31:39.371Z,29.60
2019-06-10T14:33:53.451Z,29.70
2019-06-10T14:36:22.452Z,29.60
2019-06-10T14:38:51.438Z,29.70
2019-06-10T14:41:23.088Z,29.80
2019-06-10T14:43:53.098Z,29.80
2019-06-10T14:46:23.041Z,29.80
2019-06-10T14:48:53.316Z,29.80
2019-06-10T14:51:22.924Z,29.80
2019-06-10T14:53:52.178Z,29.70
2019-06-10T14:56:23.438Z,29.80
2019-06-10T14:58:52.916Z,29.80
2019-06-10T15:01:25.534Z,29.80
2019-06-10T15:03:53.102Z,29.80
2019-06-10T15:06:22.734Z,29.80
2019-06-10T15:08:53.329Z,29.80
2019-06-10T15:11:25.408Z,29.80
2019-06-10T15:13:53.467Z,29.80
2019-06-10T15:16:23.770Z,29.80
2019-06-10T15:18:53.043Z,29.80
2019-06-10T15:21:23.203Z,29.80
2019-06-10T15:23:52.635Z,29.80
2019-06-10T15:26:22.029Z,29.80
2019-06-10T15:28:52.236Z,29.80
2019-06-10T15:31:21.401Z,29.70
2019-06-10T15:33:52.455Z,29.70
2019-06-10T15:36:21.015Z,29.70
2019-06-10T15:38:52.326Z,29.80
2019-06-10T15:41:24.397Z,29.90
2019-06-10T15:43:53.047Z,29.90
2019-06-10T15:46:22.142Z,29.80
2019-06-10T15:48:53.927Z,29.80
2019-06-10T15:51:25.955Z,29.70
2019-06-10T15:53:52.709Z,29.80
2019-06-10T15:56:31.400Z,29.80
2019-06-10T15:58:52.307Z,29.80
2019-06-10T16:01:25.409Z,29.80
2019-06-10T16:03:53.005Z,29.80
2019-06-10T16:06:23.092Z,29.70
2019-06-10T16:08:52.616Z,29.70
2019-06-10T16:11:26.367Z,29.70
2019-06-10T16:13:53.387Z,29.60
2019-06-10T16:16:23.097Z,29.70
2019-06-10T16:18:52.868Z,29.60
2019-06-10T16:21:23.628Z,29.60
2019-06-10T16:23:53.314Z,29.60
2019-06-10T16:26:26.203Z,29.60
2019-06-10T16:28:53.495Z,29.60
2019-06-10T16:31:27.055Z,29.50
2019-06-10T16:33:54.674Z,29.60
2019-06-10T16:36:25.802Z,29.60
2019-06-10T16:38:54.281Z,29.50
2019-06-10T16:41:26.085Z,29.40
2019-06-10T16:43:55.084Z,29.40
2019-06-10T16:46:24.782Z,29.30
2019-06-10T16:48:53.790Z,29.30
2019-06-10T16:51:23.709Z,29.30
2019-06-10T16:53:52.997Z,29.20
2019-06-10T16:56:24.409Z,29.30
2019-06-10T16:58:52.833Z,29.20
2019-06-10T17:01:24.961Z,29.10
2019-06-10T17:03:54.201Z,29.10
2019-06-10T17:06:25.522Z,29.10
2019-06-10T17:08:55.668Z,29.20
2019-06-10T17:11:27.514Z,29.10
2019-06-10T17:13:57.138Z,29.20
2019-06-10T17:16:46.508Z,29.20
2019-06-10T17:19:16.428Z,29.20
2019-06-10T17:21:46.646Z,29.10
2019-06-10T17:24:16.561Z,29.10
2019-06-10T17:26:46.892Z,29.00
2019-06-10T17:29:16.802Z,29.00
2019-06-10T17:31:47.045Z,29.00
2019-06-10T17:34:16.939Z,29.00
2019-06-10T17:36:47.160Z,28.90
2019-06-10T17:39:17.059Z,28.90
2019-06-10T17:41:46.907Z,28.90
2019-06-10T17:44:16.771Z,28.90
2019-06-10T17:46:46.628Z,28.90
2019-06-10T17:49:16.483Z,28.90
2019-06-10T17:51:46.330Z,28.80
2019-06-10T17:54:16.211Z,28.90
2019-06-10T17:56:46.412Z,28.80
2019-06-10T17:59:16.606Z,28.70
2019-06-10T18:01:46.845Z,28.70
2019-06-10T18:14:15.682Z,28.80
2019-06-10T19:04:15.417Z,28.50
2019-06-10T19:22:01.900Z,28.40
2019-06-10T19:26:49.055Z,28.40
2019-06-10T19:34:19.619Z,28.20
2019-06-10T19:36:52.044Z,28.20
2019-06-10T19:39:22.268Z,28.30
2019-06-10T19:44:23.991Z,28.30
2019-06-10T19:46:54.905Z,28.30
2019-06-10T19:49:25.253Z,28.40
2019-06-10T19:51:55.271Z,28.30
2019-06-10T19:54:25.337Z,28.40
2019-06-10T19:56:55.204Z,28.40
2019-06-10T19:59:25.367Z,28.40
2019-06-10T20:01:55.648Z,28.40
2019-06-10T20:04:25.563Z,28.30
2019-06-10T20:06:55.478Z,28.30
2019-06-10T20:09:25.682Z,28.30
2019-06-10T20:11:55.617Z,28.30
2019-06-10T20:14:25.939Z,28.30
2019-06-10T20:16:56.062Z,28.30
2019-06-10T20:19:26.491Z,28.30
2019-06-10T20:21:56.914Z,28.30
2019-06-10T20:24:27.226Z,28.30
2019-06-10T20:26:57.155Z,28.30
2019-06-10T20:29:27.172Z,28.30
2019-06-10T20:31:57.087Z,28.30
2019-06-10T20:34:27.309Z,28.30
2019-06-10T20:36:57.328Z,28.30
2019-06-10T20:39:29.409Z,28.20
2019-06-10T20:41:57.364Z,28.30
2019-06-10T20:44:26.466Z,28.30
2019-06-10T20:46:55.962Z,28.30
2019-06-10T20:49:25.064Z,28.40
2019-06-10T20:52:06.502Z,28.40
2019-06-10T20:54:25.100Z,28.40
2019-06-10T20:56:54.606Z,28.40
2019-06-10T20:59:25.987Z,28.30
2019-06-10T21:01:54.776Z,28.30
2019-06-10T21:04:24.247Z,28.30
2019-06-10T21:06:53.851Z,28.30
2019-06-10T21:09:22.914Z,28.30
2019-06-10T21:11:54.206Z,28.30
2019-06-10T21:14:22.936Z,28.30
2019-06-10T21:16:53.462Z,28.40
2019-06-10T21:19:23.430Z,28.40
2019-06-10T21:21:54.697Z,28.40
2019-06-10T21:24:23.664Z,28.40
2019-06-10T21:26:54.650Z,28.40
2019-06-10T21:29:23.295Z,28.40
2019-06-10T21:31:54.535Z,28.40
2019-06-10T21:34:24.143Z,28.40
2019-06-10T21:36:54.342Z,28.40
2019-06-10T21:39:24.284Z,28.40
2019-06-10T21:41:54.540Z,28.50
2019-06-10T21:44:23.703Z,28.50
2019-06-10T21:46:52.701Z,28.50
2019-06-10T21:49:23.709Z,28.50
2019-06-10T21:51:56.805Z,28.50
2019-06-10T21:54:23.464Z,28.40
2019-06-10T21:56:55.402Z,28.40
2019-06-10T21:59:23.199Z,28.40
2019-06-10T22:01:53.407Z,28.40
2019-06-10T22:04:22.626Z,28.40
2019-06-10T22:06:55.479Z,28.40
2019-06-10T22:09:25.028Z,28.40
2019-06-10T22:11:55.882Z,28.50
2019-06-10T22:14:25.947Z,28.50
2019-06-10T22:16:56.526Z,28.40
2019-06-10T22:19:26.544Z,28.50
2019-06-10T22:21:56.825Z,28.50
2019-06-10T22:24:28.210Z,28.50
2019-06-10T22:26:58.124Z,28.40
2019-06-10T22:29:27.966Z,28.50
2019-06-10T22:31:57.898Z,28.40
2019-06-10T22:34:27.740Z,28.40
2019-06-10T22:36:57.807Z,28.40
2019-06-10T22:39:27.640Z,28.40
2019-06-10T22:41:57.501Z,28.40
2019-06-10T22:44:27.353Z,28.40
2019-06-10T22:46:58.272Z,28.40
2019-06-10T22:49:28.121Z,28.40
2019-06-10T22:51:58.974Z,28.40
2019-06-10T22:54:32.097Z,28.40
2019-06-10T22:57:02.915Z,28.40
2019-06-10T22:59:33.947Z,28.40
2019-06-10T23:02:03.803Z,28.40
2019-06-10T23:04:34.013Z,28.40
2019-06-10T23:07:03.870Z,28.40
2019-06-10T23:09:34.051Z,28.40
2019-06-10T23:12:03.903Z,28.40
2019-06-10T23:14:34.086Z,28.40
2019-06-10T23:17:03.943Z,28.40
2019-06-10T23:19:33.780Z,28.30
2019-06-10T23:22:03.640Z,28.30
2019-06-10T23:24:33.793Z,28.40
2019-06-10T23:27:03.692Z,28.30
2019-06-10T23:29:33.881Z,28.30
2019-06-10T23:32:07.104Z,28.30
2019-06-10T23:34:36.517Z,28.30
2019-06-10T23:37:06.358Z,28.30
2019-06-10T23:39:36.215Z,28.20
2019-06-10T23:42:06.447Z,28.30
2019-06-10T23:44:37.361Z,28.20
2019-06-10T23:47:07.210Z,28.20
2019-06-10T23:49:37.067Z,28.30
2019-06-10T23:52:06.920Z,28.20
2019-06-10T23:54:37.131Z,28.20
2019-06-10T23:57:07.003Z,28.30
2019-06-10T23:59:36.869Z,28.30
